sensor_id;sensor_type;location;lat;lon;timestamp;temperature;humidity
81935;DHT22;71405;47.674;-2.050;2023-08-08T00:00:38;19.20;59.10
81935;DHT22;71405;47.674;-2.050;2023-08-08T00:03:04;19.20;59.00
81935;DHT22;71405;47.674;-2.050;2023-08-08T00:05:30;19.20;59.00
81935;DHT22;71405;47.674;-2.050;2023-08-08T00:07:55;19.20;58.90
81935;DHT22;71405;47.674;-2.050;2023-08-08T00:10:21;19.20;58.80
81935;DHT22;71405;47.674;-2.050;2023-08-08T00:12:46;19.20;58.70
81935;DHT22;71405;47.674;-2.050;2023-08-08T00:15:12;19.20;58.80
81935;DHT22;71405;47.674;-2.050;2023-08-08T00:17:38;19.30;58.80
81935;DHT22;71405;47.674;-2.050;2023-08-08T00:20:04;19.30;58.90
81935;DHT22;71405;47.674;-2.050;2023-08-08T00:22:30;19.30;58.90
81935;DHT22;71405;47.674;-2.050;2023-08-08T00:24:55;19.30;58.70
81935;DHT22;71405;47.674;-2.050;2023-08-08T00:27:21;19.40;59.00
81935;DHT22;71405;47.674;-2.050;2023-08-08T00:29:47;19.30;58.90
81935;DHT22;71405;47.674;-2.050;2023-08-08T00:32:12;19.40;59.00
81935;DHT22;71405;47.674;-2.050;2023-08-08T00:34:38;19.40;58.90
81935;DHT22;71405;47.674;-2.050;2023-08-08T00:37:04;19.40;58.80
81935;DHT22;71405;47.674;-2.050;2023-08-08T00:39:30;19.50;58.80
81935;DHT22;71405;47.674;-2.050;2023-08-08T00:41:55;19.50;58.90
81935;DHT22;71405;47.674;-2.050;2023-08-08T00:44:21;19.50;59.00
81935;DHT22;71405;47.674;-2.050;2023-08-08T00:46:47;19.50;58.80
81935;DHT22;71405;47.674;-2.050;2023-08-08T00:49:12;19.60;59.00
81935;DHT22;71405;47.674;-2.050;2023-08-08T00:51:38;19.60;59.10
81935;DHT22;71405;47.674;-2.050;2023-08-08T00:54:04;19.60;59.10
81935;DHT22;71405;47.674;-2.050;2023-08-08T00:56:31;19.60;59.20
81935;DHT22;71405;47.674;-2.050;2023-08-08T00:58:57;19.60;59.20
81935;DHT22;71405;47.674;-2.050;2023-08-08T01:01:23;19.60;59.10
81935;DHT22;71405;47.674;-2.050;2023-08-08T01:03:49;19.60;59.00
81935;DHT22;71405;47.674;-2.050;2023-08-08T01:09:29;19.70;59.50
81935;DHT22;71405;47.674;-2.050;2023-08-08T01:11:53;19.70;59.50
81935;DHT22;71405;47.674;-2.050;2023-08-08T01:14:21;19.70;59.40
81935;DHT22;71405;47.674;-2.050;2023-08-08T01:16:47;19.70;59.40
81935;DHT22;71405;47.674;-2.050;2023-08-08T01:19:20;19.70;59.40
81935;DHT22;71405;47.674;-2.050;2023-08-08T01:21:52;19.70;59.60
81935;DHT22;71405;47.674;-2.050;2023-08-08T01:24:23;19.70;59.50
81935;DHT22;71405;47.674;-2.050;2023-08-08T01:26:51;19.70;59.40
81935;DHT22;71405;47.674;-2.050;2023-08-08T01:29:16;19.70;59.30
81935;DHT22;71405;47.674;-2.050;2023-08-08T01:31:42;19.70;59.60
81935;DHT22;71405;47.674;-2.050;2023-08-08T01:34:08;19.70;59.80
81935;DHT22;71405;47.674;-2.050;2023-08-08T01:36:58;19.70;59.90
81935;DHT22;71405;47.674;-2.050;2023-08-08T01:39:30;19.70;59.80
81935;DHT22;71405;47.674;-2.050;2023-08-08T01:41:56;19.70;59.80
81935;DHT22;71405;47.674;-2.050;2023-08-08T01:44:24;19.70;59.80
81935;DHT22;71405;47.674;-2.050;2023-08-08T01:46:51;19.70;59.80
81935;DHT22;71405;47.674;-2.050;2023-08-08T01:49:17;19.70;59.80
81935;DHT22;71405;47.674;-2.050;2023-08-08T01:51:43;19.70;59.80
81935;DHT22;71405;47.674;-2.050;2023-08-08T01:54:09;19.80;59.80
81935;DHT22;71405;47.674;-2.050;2023-08-08T01:56:34;19.80;59.80
81935;DHT22;71405;47.674;-2.050;2023-08-08T01:59:00;19.80;59.90
81935;DHT22;71405;47.674;-2.050;2023-08-08T02:01:26;19.70;59.90
81935;DHT22;71405;47.674;-2.050;2023-08-08T02:03:52;19.80;59.90
81935;DHT22;71405;47.674;-2.050;2023-08-08T02:06:17;19.80;60.00
81935;DHT22;71405;47.674;-2.050;2023-08-08T02:08:43;19.80;59.70
81935;DHT22;71405;47.674;-2.050;2023-08-08T02:11:09;19.80;59.60
81935;DHT22;71405;47.674;-2.050;2023-08-08T02:13:34;19.80;60.00
81935;DHT22;71405;47.674;-2.050;2023-08-08T02:16:00;19.80;59.90
81935;DHT22;71405;47.674;-2.050;2023-08-08T02:18:25;19.80;60.00
81935;DHT22;71405;47.674;-2.050;2023-08-08T02:20:51;19.80;60.10
81935;DHT22;71405;47.674;-2.050;2023-08-08T02:23:17;19.80;60.10
81935;DHT22;71405;47.674;-2.050;2023-08-08T02:25:42;19.80;60.10
81935;DHT22;71405;47.674;-2.050;2023-08-08T02:28:08;19.80;60.20
81935;DHT22;71405;47.674;-2.050;2023-08-08T02:30:35;19.80;60.40
81935;DHT22;71405;47.674;-2.050;2023-08-08T02:33:00;19.80;60.40
81935;DHT22;71405;47.674;-2.050;2023-08-08T02:35:26;19.80;60.30
81935;DHT22;71405;47.674;-2.050;2023-08-08T02:37:51;19.80;60.30
81935;DHT22;71405;47.674;-2.050;2023-08-08T02:40:17;19.80;60.20
81935;DHT22;71405;47.674;-2.050;2023-08-08T02:42:43;19.80;60.10
81935;DHT22;71405;47.674;-2.050;2023-08-08T02:45:09;19.80;60.20
81935;DHT22;71405;47.674;-2.050;2023-08-08T02:47:35;19.80;60.20
81935;DHT22;71405;47.674;-2.050;2023-08-08T02:50:00;19.80;60.30
81935;DHT22;71405;47.674;-2.050;2023-08-08T02:52:26;19.80;60.30
81935;DHT22;71405;47.674;-2.050;2023-08-08T02:54:52;19.80;60.30
81935;DHT22;71405;47.674;-2.050;2023-08-08T02:57:17;19.80;60.40
81935;DHT22;71405;47.674;-2.050;2023-08-08T02:59:43;19.80;60.70
81935;DHT22;71405;47.674;-2.050;2023-08-08T03:02:09;19.80;60.60
81935;DHT22;71405;47.674;-2.050;2023-08-08T03:04:34;19.80;60.50
81935;DHT22;71405;47.674;-2.050;2023-08-08T03:07:00;19.80;60.60
81935;DHT22;71405;47.674;-2.050;2023-08-08T03:09:29;19.80;60.60
81935;DHT22;71405;47.674;-2.050;2023-08-08T03:11:55;19.80;60.60
81935;DHT22;71405;47.674;-2.050;2023-08-08T03:14:21;19.80;60.60
81935;DHT22;71405;47.674;-2.050;2023-08-08T03:16:46;19.80;60.70
81935;DHT22;71405;47.674;-2.050;2023-08-08T03:19:12;19.80;60.70
81935;DHT22;71405;47.674;-2.050;2023-08-08T03:21:38;19.80;60.50
81935;DHT22;71405;47.674;-2.050;2023-08-08T03:24:03;19.80;60.40
81935;DHT22;71405;47.674;-2.050;2023-08-08T03:26:29;19.80;60.60
81935;DHT22;71405;47.674;-2.050;2023-08-08T03:28:55;19.80;60.50
81935;DHT22;71405;47.674;-2.050;2023-08-08T03:31:21;19.80;60.60
81935;DHT22;71405;47.674;-2.050;2023-08-08T03:33:47;19.80;60.60
81935;DHT22;71405;47.674;-2.050;2023-08-08T03:36:16;19.80;60.50
81935;DHT22;71405;47.674;-2.050;2023-08-08T03:38:41;19.80;60.60
81935;DHT22;71405;47.674;-2.050;2023-08-08T03:41:11;19.80;60.60
81935;DHT22;71405;47.674;-2.050;2023-08-08T03:43:38;19.80;60.50
81935;DHT22;71405;47.674;-2.050;2023-08-08T03:46:03;19.80;60.40
81935;DHT22;71405;47.674;-2.050;2023-08-08T03:48:29;19.80;60.60
81935;DHT22;71405;47.674;-2.050;2023-08-08T03:50:55;19.80;60.70
81935;DHT22;71405;47.674;-2.050;2023-08-08T03:53:20;19.80;60.60
81935;DHT22;71405;47.674;-2.050;2023-08-08T03:55:46;19.80;60.50
81935;DHT22;71405;47.674;-2.050;2023-08-08T03:58:12;19.80;60.60
81935;DHT22;71405;47.674;-2.050;2023-08-08T04:00:37;19.80;60.70
81935;DHT22;71405;47.674;-2.050;2023-08-08T04:03:05;19.80;60.50
81935;DHT22;71405;47.674;-2.050;2023-08-08T04:05:30;19.80;60.90
81935;DHT22;71405;47.674;-2.050;2023-08-08T04:07:56;19.80;60.90
81935;DHT22;71405;47.674;-2.050;2023-08-08T04:10:21;19.80;61.00
81935;DHT22;71405;47.674;-2.050;2023-08-08T04:12:47;19.80;61.00
81935;DHT22;71405;47.674;-2.050;2023-08-08T04:15:13;19.80;61.10
81935;DHT22;71405;47.674;-2.050;2023-08-08T04:17:38;19.80;60.90
81935;DHT22;71405;47.674;-2.050;2023-08-08T04:20:05;19.80;61.10
81935;DHT22;71405;47.674;-2.050;2023-08-08T04:22:31;19.80;61.00
81935;DHT22;71405;47.674;-2.050;2023-08-08T04:24:57;19.90;60.80
81935;DHT22;71405;47.674;-2.050;2023-08-08T04:27:23;19.80;60.70
81935;DHT22;71405;47.674;-2.050;2023-08-08T04:29:48;19.80;60.80
81935;DHT22;71405;47.674;-2.050;2023-08-08T04:32:14;19.80;60.80
81935;DHT22;71405;47.674;-2.050;2023-08-08T04:34:40;19.80;60.70
81935;DHT22;71405;47.674;-2.050;2023-08-08T04:37:05;19.80;61.10
81935;DHT22;71405;47.674;-2.050;2023-08-08T04:39:31;19.80;61.00
81935;DHT22;71405;47.674;-2.050;2023-08-08T04:41:57;19.80;61.20
81935;DHT22;71405;47.674;-2.050;2023-08-08T04:44:22;19.80;61.10
81935;DHT22;71405;47.674;-2.050;2023-08-08T04:46:48;19.80;61.00
81935;DHT22;71405;47.674;-2.050;2023-08-08T04:49:13;19.80;61.00
81935;DHT22;71405;47.674;-2.050;2023-08-08T04:51:39;19.80;61.20
81935;DHT22;71405;47.674;-2.050;2023-08-08T04:54:05;19.80;61.30
81935;DHT22;71405;47.674;-2.050;2023-08-08T04:56:30;19.80;60.50
81935;DHT22;71405;47.674;-2.050;2023-08-08T04:58:56;19.80;60.40
81935;DHT22;71405;47.674;-2.050;2023-08-08T05:01:22;19.70;60.60
81935;DHT22;71405;47.674;-2.050;2023-08-08T05:03:48;19.70;60.90
81935;DHT22;71405;47.674;-2.050;2023-08-08T05:06:13;19.80;61.00
81935;DHT22;71405;47.674;-2.050;2023-08-08T05:08:39;19.80;60.80
81935;DHT22;71405;47.674;-2.050;2023-08-08T05:11:05;19.80;60.80
81935;DHT22;71405;47.674;-2.050;2023-08-08T05:13:30;19.80;60.80
81935;DHT22;71405;47.674;-2.050;2023-08-08T05:15:56;19.80;60.80
81935;DHT22;71405;47.674;-2.050;2023-08-08T05:18:21;19.80;60.80
81935;DHT22;71405;47.674;-2.050;2023-08-08T05:20:47;19.80;60.90
81935;DHT22;71405;47.674;-2.050;2023-08-08T05:23:13;19.80;60.90
81935;DHT22;71405;47.674;-2.050;2023-08-08T05:25:38;19.80;61.00
81935;DHT22;71405;47.674;-2.050;2023-08-08T05:28:04;19.90;61.00
81935;DHT22;71405;47.674;-2.050;2023-08-08T05:30:30;19.80;61.00
81935;DHT22;71405;47.674;-2.050;2023-08-08T05:32:56;19.80;60.90
81935;DHT22;71405;47.674;-2.050;2023-08-08T05:35:21;19.80;61.00
81935;DHT22;71405;47.674;-2.050;2023-08-08T05:37:47;19.90;61.10
81935;DHT22;71405;47.674;-2.050;2023-08-08T05:40:13;19.80;61.00
81935;DHT22;71405;47.674;-2.050;2023-08-08T05:42:38;19.80;61.10
81935;DHT22;71405;47.674;-2.050;2023-08-08T05:45:05;19.90;61.10
81935;DHT22;71405;47.674;-2.050;2023-08-08T05:47:31;19.80;60.70
81935;DHT22;71405;47.674;-2.050;2023-08-08T05:49:57;19.70;61.10
81935;DHT22;71405;47.674;-2.050;2023-08-08T05:52:22;19.60;61.30
81935;DHT22;71405;47.674;-2.050;2023-08-08T05:54:48;19.70;61.20
81935;DHT22;71405;47.674;-2.050;2023-08-08T05:57:14;19.70;61.30
81935;DHT22;71405;47.674;-2.050;2023-08-08T05:59:39;19.70;61.40
81935;DHT22;71405;47.674;-2.050;2023-08-08T06:02:06;19.70;61.40
81935;DHT22;71405;47.674;-2.050;2023-08-08T06:04:31;19.70;61.50
81935;DHT22;71405;47.674;-2.050;2023-08-08T06:06:57;19.70;61.50
81935;DHT22;71405;47.674;-2.050;2023-08-08T06:09:23;19.70;61.30
81935;DHT22;71405;47.674;-2.050;2023-08-08T06:11:48;19.70;61.30
81935;DHT22;71405;47.674;-2.050;2023-08-08T06:14:14;19.60;61.40
81935;DHT22;71405;47.674;-2.050;2023-08-08T06:16:40;19.60;61.60
81935;DHT22;71405;47.674;-2.050;2023-08-08T06:19:06;19.60;61.50
81935;DHT22;71405;47.674;-2.050;2023-08-08T06:21:32;19.60;61.60
81935;DHT22;71405;47.674;-2.050;2023-08-08T06:23:58;19.60;62.00
81935;DHT22;71405;47.674;-2.050;2023-08-08T06:26:23;19.70;61.80
81935;DHT22;71405;47.674;-2.050;2023-08-08T06:28:49;19.70;62.10
81935;DHT22;71405;47.674;-2.050;2023-08-08T06:31:17;19.70;62.20
81935;DHT22;71405;47.674;-2.050;2023-08-08T06:33:43;19.70;62.20
81935;DHT22;71405;47.674;-2.050;2023-08-08T06:36:09;19.70;62.10
81935;DHT22;71405;47.674;-2.050;2023-08-08T06:38:34;19.70;62.20
81935;DHT22;71405;47.674;-2.050;2023-08-08T06:41:02;19.70;62.30
81935;DHT22;71405;47.674;-2.050;2023-08-08T06:43:27;19.70;62.20
81935;DHT22;71405;47.674;-2.050;2023-08-08T06:45:53;19.70;62.30
81935;DHT22;71405;47.674;-2.050;2023-08-08T06:48:19;19.70;62.40
81935;DHT22;71405;47.674;-2.050;2023-08-08T06:50:45;19.70;62.40
81935;DHT22;71405;47.674;-2.050;2023-08-08T06:53:10;19.70;62.50
81935;DHT22;71405;47.674;-2.050;2023-08-08T06:55:36;19.70;62.50
81935;DHT22;71405;47.674;-2.050;2023-08-08T06:58:02;19.70;62.60
81935;DHT22;71405;47.674;-2.050;2023-08-08T07:00:28;19.70;62.50
81935;DHT22;71405;47.674;-2.050;2023-08-08T07:02:54;19.70;62.50
81935;DHT22;71405;47.674;-2.050;2023-08-08T07:05:20;19.70;62.50
81935;DHT22;71405;47.674;-2.050;2023-08-08T07:07:51;19.70;62.50
81935;DHT22;71405;47.674;-2.050;2023-08-08T07:10:18;19.70;62.60
81935;DHT22;71405;47.674;-2.050;2023-08-08T07:12:44;19.70;62.50
81935;DHT22;71405;47.674;-2.050;2023-08-08T07:15:10;19.70;62.40
81935;DHT22;71405;47.674;-2.050;2023-08-08T07:17:36;19.70;62.50
81935;DHT22;71405;47.674;-2.050;2023-08-08T07:20:02;19.70;62.50
81935;DHT22;71405;47.674;-2.050;2023-08-08T07:22:28;19.80;62.40
81935;DHT22;71405;47.674;-2.050;2023-08-08T07:24:53;19.80;62.40
81935;DHT22;71405;47.674;-2.050;2023-08-08T07:27:19;19.80;62.30
81935;DHT22;71405;47.674;-2.050;2023-08-08T07:29:45;19.80;62.30
81935;DHT22;71405;47.674;-2.050;2023-08-08T07:32:10;19.80;62.30
81935;DHT22;71405;47.674;-2.050;2023-08-08T07:34:36;19.80;62.30
81935;DHT22;71405;47.674;-2.050;2023-08-08T07:37:02;19.80;62.30
81935;DHT22;71405;47.674;-2.050;2023-08-08T07:39:29;19.80;62.40
81935;DHT22;71405;47.674;-2.050;2023-08-08T07:41:55;19.90;62.30
81935;DHT22;71405;47.674;-2.050;2023-08-08T07:44:21;19.90;62.20
81935;DHT22;71405;47.674;-2.050;2023-08-08T07:46:46;19.90;62.20
81935;DHT22;71405;47.674;-2.050;2023-08-08T07:49:13;19.90;62.10
81935;DHT22;71405;47.674;-2.050;2023-08-08T07:51:38;19.90;62.00
81935;DHT22;71405;47.674;-2.050;2023-08-08T07:54:04;19.90;61.90
81935;DHT22;71405;47.674;-2.050;2023-08-08T07:56:34;19.90;61.80
81935;DHT22;71405;47.674;-2.050;2023-08-08T07:59:00;19.90;61.80
81935;DHT22;71405;47.674;-2.050;2023-08-08T08:01:27;19.90;61.80
81935;DHT22;71405;47.674;-2.050;2023-08-08T08:03:53;19.90;61.80
81935;DHT22;71405;47.674;-2.050;2023-08-08T08:06:18;19.90;61.80
81935;DHT22;71405;47.674;-2.050;2023-08-08T08:08:44;20.00;61.70
81935;DHT22;71405;47.674;-2.050;2023-08-08T08:11:10;19.90;61.80
81935;DHT22;71405;47.674;-2.050;2023-08-08T08:13:36;20.00;61.80
81935;DHT22;71405;47.674;-2.050;2023-08-08T08:16:02;20.00;61.80
81935;DHT22;71405;47.674;-2.050;2023-08-08T08:18:28;20.00;61.80
81935;DHT22;71405;47.674;-2.050;2023-08-08T08:20:55;20.00;61.70
81935;DHT22;71405;47.674;-2.050;2023-08-08T08:23:20;20.00;61.70
81935;DHT22;71405;47.674;-2.050;2023-08-08T08:25:46;20.00;61.80
81935;DHT22;71405;47.674;-2.050;2023-08-08T08:28:12;20.00;61.70
81935;DHT22;71405;47.674;-2.050;2023-08-08T08:30:38;20.00;61.70
81935;DHT22;71405;47.674;-2.050;2023-08-08T08:33:04;20.00;61.70
81935;DHT22;71405;47.674;-2.050;2023-08-08T08:35:33;20.00;61.80
81935;DHT22;71405;47.674;-2.050;2023-08-08T08:37:59;20.10;61.70
81935;DHT22;71405;47.674;-2.050;2023-08-08T08:40:25;20.10;61.80
81935;DHT22;71405;47.674;-2.050;2023-08-08T08:42:50;20.10;61.60
81935;DHT22;71405;47.674;-2.050;2023-08-08T08:45:20;20.10;61.50
81935;DHT22;71405;47.674;-2.050;2023-08-08T08:47:47;20.10;61.30
81935;DHT22;71405;47.674;-2.050;2023-08-08T08:50:15;20.10;61.20
81935;DHT22;71405;47.674;-2.050;2023-08-08T08:52:43;20.10;61.20
81935;DHT22;71405;47.674;-2.050;2023-08-08T08:55:09;20.10;61.20
81935;DHT22;71405;47.674;-2.050;2023-08-08T08:57:36;20.10;61.30
81935;DHT22;71405;47.674;-2.050;2023-08-08T09:00:03;20.10;61.30
81935;DHT22;71405;47.674;-2.050;2023-08-08T09:02:31;20.10;61.30
81935;DHT22;71405;47.674;-2.050;2023-08-08T09:04:58;20.10;61.20
81935;DHT22;71405;47.674;-2.050;2023-08-08T09:07:29;20.10;61.20
81935;DHT22;71405;47.674;-2.050;2023-08-08T09:09:57;20.10;61.30
81935;DHT22;71405;47.674;-2.050;2023-08-08T09:12:22;20.20;61.10
81935;DHT22;71405;47.674;-2.050;2023-08-08T09:14:55;20.20;61.10
81935;DHT22;71405;47.674;-2.050;2023-08-08T09:17:27;20.20;61.10
81935;DHT22;71405;47.674;-2.050;2023-08-08T09:19:56;20.20;61.10
81935;DHT22;71405;47.674;-2.050;2023-08-08T09:22:23;20.20;61.10
81935;DHT22;71405;47.674;-2.050;2023-08-08T09:24:50;20.20;61.10
81935;DHT22;71405;47.674;-2.050;2023-08-08T09:27:16;20.20;61.00
81935;DHT22;71405;47.674;-2.050;2023-08-08T09:29:42;20.20;61.10
81935;DHT22;71405;47.674;-2.050;2023-08-08T09:32:08;20.30;61.10
81935;DHT22;71405;47.674;-2.050;2023-08-08T09:34:35;20.30;61.30
81935;DHT22;71405;47.674;-2.050;2023-08-08T09:37:01;20.30;61.20
81935;DHT22;71405;47.674;-2.050;2023-08-08T09:39:28;20.40;61.10
81935;DHT22;71405;47.674;-2.050;2023-08-08T09:41:55;20.40;60.90
81935;DHT22;71405;47.674;-2.050;2023-08-08T09:44:26;20.40;60.90
81935;DHT22;71405;47.674;-2.050;2023-08-08T09:46:54;20.40;61.10
81935;DHT22;71405;47.674;-2.050;2023-08-08T09:49:21;20.40;60.90
81935;DHT22;71405;47.674;-2.050;2023-08-08T09:51:48;20.40;61.00
81935;DHT22;71405;47.674;-2.050;2023-08-08T09:54:15;20.30;61.00
81935;DHT22;71405;47.674;-2.050;2023-08-08T09:56:42;20.30;61.10
81935;DHT22;71405;47.674;-2.050;2023-08-08T09:59:09;20.30;61.00
81935;DHT22;71405;47.674;-2.050;2023-08-08T10:01:35;20.30;61.10
81935;DHT22;71405;47.674;-2.050;2023-08-08T10:04:03;20.30;61.10
81935;DHT22;71405;47.674;-2.050;2023-08-08T10:06:29;20.30;61.20
81935;DHT22;71405;47.674;-2.050;2023-08-08T10:08:55;20.30;61.20
81935;DHT22;71405;47.674;-2.050;2023-08-08T10:11:22;20.30;61.10
81935;DHT22;71405;47.674;-2.050;2023-08-08T10:13:52;20.30;60.60
81935;DHT22;71405;47.674;-2.050;2023-08-08T10:16:18;20.30;61.00
81935;DHT22;71405;47.674;-2.050;2023-08-08T10:18:45;20.30;61.00
81935;DHT22;71405;47.674;-2.050;2023-08-08T10:21:12;20.30;60.90
81935;DHT22;71405;47.674;-2.050;2023-08-08T10:23:39;20.30;61.00
81935;DHT22;71405;47.674;-2.050;2023-08-08T10:26:16;20.30;61.10
81935;DHT22;71405;47.674;-2.050;2023-08-08T10:28:54;20.30;61.10
81935;DHT22;71405;47.674;-2.050;2023-08-08T10:31:21;20.30;61.10
81935;DHT22;71405;47.674;-2.050;2023-08-08T10:33:47;20.30;61.20
81935;DHT22;71405;47.674;-2.050;2023-08-08T10:36:12;20.40;61.10
81935;DHT22;71405;47.674;-2.050;2023-08-08T10:41:14;20.40;61.00
81935;DHT22;71405;47.674;-2.050;2023-08-08T10:43:50;20.40;61.10
81935;DHT22;71405;47.674;-2.050;2023-08-08T10:46:27;20.40;61.10
81935;DHT22;71405;47.674;-2.050;2023-08-08T10:49:04;20.40;61.20
81935;DHT22;71405;47.674;-2.050;2023-08-08T10:51:44;20.40;61.30
81935;DHT22;71405;47.674;-2.050;2023-08-08T10:54:21;20.40;61.40
81935;DHT22;71405;47.674;-2.050;2023-08-08T10:56:52;20.40;61.30
81935;DHT22;71405;47.674;-2.050;2023-08-08T10:59:21;20.40;61.10
81935;DHT22;71405;47.674;-2.050;2023-08-08T11:01:48;20.40;60.80
81935;DHT22;71405;47.674;-2.050;2023-08-08T11:04:16;20.50;60.90
81935;DHT22;71405;47.674;-2.050;2023-08-08T11:06:43;20.50;61.20
81935;DHT22;71405;47.674;-2.050;2023-08-08T11:09:09;20.50;61.10
81935;DHT22;71405;47.674;-2.050;2023-08-08T11:11:39;20.50;60.70
81935;DHT22;71405;47.674;-2.050;2023-08-08T11:14:13;20.50;60.60
81935;DHT22;71405;47.674;-2.050;2023-08-08T11:16:39;20.60;60.80
81935;DHT22;71405;47.674;-2.050;2023-08-08T11:19:05;20.60;60.60
81935;DHT22;71405;47.674;-2.050;2023-08-08T11:21:34;20.60;60.30
81935;DHT22;71405;47.674;-2.050;2023-08-08T11:24:01;20.60;60.50
81935;DHT22;71405;47.674;-2.050;2023-08-08T11:26:27;20.60;60.40
81935;DHT22;71405;47.674;-2.050;2023-08-08T11:28:53;20.60;60.20
81935;DHT22;71405;47.674;-2.050;2023-08-08T11:31:22;20.70;60.10
81935;DHT22;71405;47.674;-2.050;2023-08-08T11:33:48;20.70;60.20
81935;DHT22;71405;47.674;-2.050;2023-08-08T11:36:14;20.70;60.10
81935;DHT22;71405;47.674;-2.050;2023-08-08T11:38:41;20.70;60.10
81935;DHT22;71405;47.674;-2.050;2023-08-08T11:41:10;20.70;60.10
81935;DHT22;71405;47.674;-2.050;2023-08-08T11:43:39;20.70;60.30
81935;DHT22;71405;47.674;-2.050;2023-08-08T11:46:12;20.70;60.20
81935;DHT22;71405;47.674;-2.050;2023-08-08T11:48:38;20.70;60.30
81935;DHT22;71405;47.674;-2.050;2023-08-08T11:51:05;20.70;60.60
81935;DHT22;71405;47.674;-2.050;2023-08-08T11:53:31;20.80;60.60
81935;DHT22;71405;47.674;-2.050;2023-08-08T11:55:57;20.80;60.50
81935;DHT22;71405;47.674;-2.050;2023-08-08T11:58:24;20.80;60.40
81935;DHT22;71405;47.674;-2.050;2023-08-08T12:00:51;20.80;60.30
81935;DHT22;71405;47.674;-2.050;2023-08-08T12:03:18;20.90;60.40
81935;DHT22;71405;47.674;-2.050;2023-08-08T12:05:47;20.90;60.20
81935;DHT22;71405;47.674;-2.050;2023-08-08T12:08:22;20.90;60.50
81935;DHT22;71405;47.674;-2.050;2023-08-08T12:10:50;20.90;60.40
81935;DHT22;71405;47.674;-2.050;2023-08-08T12:13:22;20.90;60.40
81935;DHT22;71405;47.674;-2.050;2023-08-08T12:15:49;21.00;60.50
81935;DHT22;71405;47.674;-2.050;2023-08-08T12:18:18;21.00;60.40
81935;DHT22;71405;47.674;-2.050;2023-08-08T12:20:44;21.00;60.30
81935;DHT22;71405;47.674;-2.050;2023-08-08T12:23:11;21.00;60.20
81935;DHT22;71405;47.674;-2.050;2023-08-08T12:25:37;21.00;60.40
81935;DHT22;71405;47.674;-2.050;2023-08-08T12:28:03;21.00;60.30
81935;DHT22;71405;47.674;-2.050;2023-08-08T12:30:29;21.00;60.40
81935;DHT22;71405;47.674;-2.050;2023-08-08T12:32:54;21.00;60.30
81935;DHT22;71405;47.674;-2.050;2023-08-08T12:35:20;21.00;60.30
81935;DHT22;71405;47.674;-2.050;2023-08-08T12:37:46;21.00;60.20
81935;DHT22;71405;47.674;-2.050;2023-08-08T12:40:12;21.10;60.10
81935;DHT22;71405;47.674;-2.050;2023-08-08T12:42:38;21.10;60.20
81935;DHT22;71405;47.674;-2.050;2023-08-08T12:45:05;21.10;60.20
81935;DHT22;71405;47.674;-2.050;2023-08-08T12:47:31;21.10;60.30
81935;DHT22;71405;47.674;-2.050;2023-08-08T12:49:57;21.10;60.20
81935;DHT22;71405;47.674;-2.050;2023-08-08T12:52:23;21.20;60.00
81935;DHT22;71405;47.674;-2.050;2023-08-08T12:54:49;21.20;60.00
81935;DHT22;71405;47.674;-2.050;2023-08-08T12:57:14;21.20;60.00
81935;DHT22;71405;47.674;-2.050;2023-08-08T12:59:40;21.30;60.20
81935;DHT22;71405;47.674;-2.050;2023-08-08T13:02:06;21.30;60.00
81935;DHT22;71405;47.674;-2.050;2023-08-08T13:04:32;21.30;60.00
81935;DHT22;71405;47.674;-2.050;2023-08-08T13:06:58;21.40;59.80
81935;DHT22;71405;47.674;-2.050;2023-08-08T13:09:24;21.30;60.00
81935;DHT22;71405;47.674;-2.050;2023-08-08T13:11:50;21.30;60.10
81935;DHT22;71405;47.674;-2.050;2023-08-08T13:14:15;21.40;60.10
81935;DHT22;71405;47.674;-2.050;2023-08-08T13:16:41;21.40;60.10
81935;DHT22;71405;47.674;-2.050;2023-08-08T13:19:07;21.40;60.00
81935;DHT22;71405;47.674;-2.050;2023-08-08T13:21:33;21.50;60.00
81935;DHT22;71405;47.674;-2.050;2023-08-08T13:23:59;21.50;60.00
81935;DHT22;71405;47.674;-2.050;2023-08-08T13:26:24;21.50;60.20
81935;DHT22;71405;47.674;-2.050;2023-08-08T13:28:50;21.40;60.30
81935;DHT22;71405;47.674;-2.050;2023-08-08T13:31:16;21.40;60.30
81935;DHT22;71405;47.674;-2.050;2023-08-08T13:33:42;21.50;60.30
81935;DHT22;71405;47.674;-2.050;2023-08-08T13:36:07;21.60;60.30
81935;DHT22;71405;47.674;-2.050;2023-08-08T13:38:33;21.60;60.30
81935;DHT22;71405;47.674;-2.050;2023-08-08T13:40:59;21.60;60.40
81935;DHT22;71405;47.674;-2.050;2023-08-08T13:43:26;21.70;60.20
81935;DHT22;71405;47.674;-2.050;2023-08-08T13:45:52;21.70;60.50
81935;DHT22;71405;47.674;-2.050;2023-08-08T13:48:18;21.70;60.30
81935;DHT22;71405;47.674;-2.050;2023-08-08T13:50:43;21.70;60.40
81935;DHT22;71405;47.674;-2.050;2023-08-08T13:53:09;21.70;60.40
81935;DHT22;71405;47.674;-2.050;2023-08-08T13:55:35;21.70;60.40
81935;DHT22;71405;47.674;-2.050;2023-08-08T13:58:06;21.70;60.40
81935;DHT22;71405;47.674;-2.050;2023-08-08T14:00:33;21.70;60.50
81935;DHT22;71405;47.674;-2.050;2023-08-08T14:02:58;21.70;60.40
81935;DHT22;71405;47.674;-2.050;2023-08-08T14:05:24;21.70;60.50
81935;DHT22;71405;47.674;-2.050;2023-08-08T14:07:50;21.80;60.30
81935;DHT22;71405;47.674;-2.050;2023-08-08T14:10:16;21.80;60.30
81935;DHT22;71405;47.674;-2.050;2023-08-08T14:12:42;21.90;60.20
81935;DHT22;71405;47.674;-2.050;2023-08-08T14:15:08;22.00;60.10
81935;DHT22;71405;47.674;-2.050;2023-08-08T14:17:35;22.10;60.10
81935;DHT22;71405;47.674;-2.050;2023-08-08T14:20:01;22.10;60.10
81935;DHT22;71405;47.674;-2.050;2023-08-08T14:22:26;22.10;60.00
81935;DHT22;71405;47.674;-2.050;2023-08-08T14:24:52;22.00;60.20
81935;DHT22;71405;47.674;-2.050;2023-08-08T14:27:17;22.00;60.20
81935;DHT22;71405;47.674;-2.050;2023-08-08T14:29:43;22.00;60.30
81935;DHT22;71405;47.674;-2.050;2023-08-08T14:32:09;22.00;60.20
81935;DHT22;71405;47.674;-2.050;2023-08-08T14:34:36;22.00;60.30
81935;DHT22;71405;47.674;-2.050;2023-08-08T14:37:03;22.00;60.10
81935;DHT22;71405;47.674;-2.050;2023-08-08T14:39:29;22.10;59.90
81935;DHT22;71405;47.674;-2.050;2023-08-08T14:41:56;22.10;59.70
81935;DHT22;71405;47.674;-2.050;2023-08-08T14:44:22;22.20;59.80
81935;DHT22;71405;47.674;-2.050;2023-08-08T14:46:48;22.10;60.00
81935;DHT22;71405;47.674;-2.050;2023-08-08T14:49:13;22.10;60.00
81935;DHT22;71405;47.674;-2.050;2023-08-08T14:51:39;22.20;60.00
81935;DHT22;71405;47.674;-2.050;2023-08-08T14:54:05;22.10;60.00
81935;DHT22;71405;47.674;-2.050;2023-08-08T14:56:30;22.20;60.00
81935;DHT22;71405;47.674;-2.050;2023-08-08T14:58:56;22.20;60.00
81935;DHT22;71405;47.674;-2.050;2023-08-08T15:01:22;22.20;59.90
81935;DHT22;71405;47.674;-2.050;2023-08-08T15:03:49;22.30;59.90
81935;DHT22;71405;47.674;-2.050;2023-08-08T15:06:15;22.40;59.80
81935;DHT22;71405;47.674;-2.050;2023-08-08T15:08:41;22.40;59.90
81935;DHT22;71405;47.674;-2.050;2023-08-08T15:11:07;22.40;59.80
81935;DHT22;71405;47.674;-2.050;2023-08-08T15:13:33;22.30;60.10
81935;DHT22;71405;47.674;-2.050;2023-08-08T15:15:59;22.30;60.20